createdAt,value
2023-04-29T00:00:08.697Z,49.14
2023-04-29T00:02:35.663Z,48.87
2023-04-29T00:05:05.476Z,49.05
2023-04-29T00:07:32.551Z,48.90
2023-04-29T00:09:59.440Z,49.26
2023-04-29T00:12:26.349Z,48.81
2023-04-29T00:14:53.070Z,49.12
2023-04-29T00:17:19.627Z,48.59
2023-04-29T00:19:46.137Z,48.42
2023-04-29T00:22:12.669Z,49.30
2023-04-29T00:24:39.200Z,48.36
2023-04-29T00:27:06.600Z,48.41
2023-04-29T00:29:33.152Z,48.45
2023-04-29T00:32:00.008Z,48.62
2023-04-29T00:34:26.695Z,48.28
2023-04-29T00:36:53.278Z,48.61
2023-04-29T00:39:19.777Z,48.57
2023-04-29T00:41:46.436Z,48.83
2023-04-29T00:44:12.952Z,48.41
2023-04-29T00:46:39.723Z,48.88
2023-04-29T00:49:06.976Z,48.34
2023-04-29T00:51:34.426Z,48.82
2023-04-29T00:54:00.988Z,48.42
2023-04-29T00:56:30.910Z,49.00
2023-04-29T00:58:58.131Z,48.30
2023-04-29T01:01:24.721Z,48.33
2023-04-29T01:03:51.605Z,48.27
2023-04-29T01:06:18.634Z,48.71
2023-04-29T01:09:00.206Z,48.41
2023-04-29T01:11:34.737Z,48.74
2023-04-29T01:14:05.496Z,48.56
2023-04-29T01:16:49.199Z,48.36
2023-04-29T01:19:20.305Z,48.18
2023-04-29T01:21:51.145Z,48.42
2023-04-29T01:24:17.948Z,48.39
2023-04-29T01:26:55.118Z,48.02
2023-04-29T01:29:44.892Z,48.18
2023-04-29T01:32:23.111Z,48.32
2023-04-29T01:35:04.647Z,47.92
2023-04-29T01:37:47.202Z,48.51
2023-04-29T01:40:22.547Z,47.78
2023-04-29T01:43:01.531Z,48.47
2023-04-29T01:45:29.147Z,48.35
2023-04-29T01:47:58.768Z,48.57
2023-04-29T01:50:25.535Z,48.07
2023-04-29T01:52:52.118Z,47.98
2023-04-29T01:55:18.890Z,48.14
2023-04-29T01:57:45.448Z,47.98
2023-04-29T02:00:12.229Z,48.44
2023-04-29T02:02:39.109Z,48.53
2023-04-29T02:05:05.892Z,48.50
2023-04-29T02:07:32.421Z,48.73
2023-04-29T02:09:58.986Z,48.20
2023-04-29T02:12:25.794Z,47.81
2023-04-29T02:14:53.360Z,48.24
2023-04-29T02:17:19.888Z,48.43
2023-04-29T02:19:46.487Z,47.94
2023-04-29T02:22:13.031Z,48.19
2023-04-29T02:24:39.529Z,48.09
2023-04-29T02:27:06.806Z,47.94
2023-04-29T02:29:33.451Z,48.05
2023-04-29T02:32:00.088Z,48.03
2023-04-29T02:34:26.661Z,48.51
2023-04-29T02:36:53.589Z,48.39
2023-04-29T02:39:20.630Z,47.98
2023-04-29T02:41:47.179Z,48.34
2023-04-29T02:44:13.719Z,48.23
2023-04-29T02:46:45.182Z,48.08
2023-04-29T02:49:13.451Z,48.07
2023-04-29T02:51:41.309Z,48.41
2023-04-29T02:54:07.910Z,48.60
2023-04-29T02:56:34.459Z,48.02
2023-04-29T02:59:01.213Z,48.17
2023-04-29T03:01:27.829Z,48.37
2023-04-29T03:03:54.885Z,48.35
2023-04-29T03:06:21.596Z,48.54
2023-04-29T03:08:48.118Z,48.38
2023-04-29T03:11:14.640Z,48.59
2023-04-29T03:13:41.230Z,48.64
2023-04-29T03:16:08.547Z,47.60
2023-04-29T03:18:35.101Z,47.95
2023-04-29T03:21:04.340Z,48.37
2023-04-29T03:23:30.937Z,48.04
2023-04-29T03:25:57.629Z,48.56
2023-04-29T03:28:24.232Z,48.06
2023-04-29T03:30:50.974Z,48.26
2023-04-29T03:33:17.514Z,48.03
2023-04-29T03:35:44.975Z,47.91
2023-04-29T03:38:11.728Z,48.42
2023-04-29T03:40:38.351Z,47.93
2023-04-29T03:43:04.934Z,48.53
2023-04-29T03:45:31.603Z,47.92
2023-04-29T03:47:58.127Z,48.21
2023-04-29T03:50:25.471Z,48.35
2023-04-29T03:52:52.215Z,48.19
2023-04-29T03:55:18.731Z,48.09
2023-04-29T03:57:45.305Z,48.58
2023-04-29T04:00:12.519Z,48.05
2023-04-29T04:02:39.227Z,48.58
2023-04-29T04:05:06.125Z,47.95
2023-04-29T04:07:32.783Z,48.36
2023-04-29T04:09:59.331Z,47.98
2023-04-29T04:12:25.829Z,48.12
2023-04-29T04:14:53.018Z,48.26
2023-04-29T04:17:19.774Z,47.85
2023-04-29T04:19:46.337Z,48.37
2023-04-29T04:22:13.159Z,48.55
2023-04-29T04:24:39.723Z,48.50
2023-04-29T04:27:07.144Z,47.96
2023-04-29T04:29:33.691Z,47.77
2023-04-29T04:32:00.494Z,47.87
2023-04-29T04:34:27.224Z,48.44
2023-04-29T04:36:53.814Z,48.56
2023-04-29T04:39:20.352Z,48.57
2023-04-29T04:41:46.924Z,48.30
2023-04-29T04:44:14.194Z,48.05
2023-04-29T04:46:40.751Z,48.24
2023-04-29T04:49:07.777Z,47.66
2023-04-29T04:51:34.271Z,47.71
2023-04-29T04:54:00.862Z,48.28
2023-04-29T04:56:27.411Z,48.23
2023-04-29T04:58:53.946Z,47.99
2023-04-29T05:01:20.679Z,47.96
2023-04-29T05:03:47.491Z,48.01
2023-04-29T05:06:14.682Z,47.92
2023-04-29T05:08:41.224Z,48.29
2023-04-29T05:11:16.162Z,48.21
2023-04-29T05:13:42.668Z,48.42
2023-04-29T05:16:09.244Z,48.26
2023-04-29T05:18:36.110Z,47.99
2023-04-29T05:21:02.677Z,47.80
2023-04-29T05:23:29.261Z,48.42
2023-04-29T05:25:55.986Z,48.61
2023-04-29T05:28:22.509Z,47.93
2023-04-29T05:30:51.981Z,48.42
2023-04-29T05:33:18.587Z,47.92
2023-04-29T05:35:45.100Z,47.90
2023-04-29T05:38:11.631Z,48.23
2023-04-29T05:40:38.436Z,48.27
2023-04-29T05:43:04.909Z,48.06
2023-04-29T05:45:31.431Z,47.87
2023-04-29T05:47:57.987Z,48.65
2023-04-29T05:50:24.598Z,48.10
2023-04-29T05:52:51.891Z,48.59
2023-04-29T05:55:18.509Z,47.82
2023-04-29T05:57:45.001Z,48.77
2023-04-29T06:00:11.900Z,48.26
2023-04-29T06:02:50.692Z,48.38
2023-04-29T06:05:24.767Z,48.18
2023-04-29T06:07:51.992Z,48.11
2023-04-29T06:10:19.103Z,47.81
2023-04-29T06:12:47.015Z,47.95
2023-04-29T06:15:13.609Z,47.55
2023-04-29T06:17:40.326Z,47.99
2023-04-29T06:20:07.534Z,47.76
2023-04-29T06:22:34.043Z,48.49
2023-04-29T06:25:00.691Z,48.21
2023-04-29T06:27:28.206Z,48.05
2023-04-29T06:29:54.912Z,48.23
2023-04-29T06:32:21.715Z,48.09
2023-04-29T06:34:48.205Z,48.38
2023-04-29T06:37:14.764Z,48.37
2023-04-29T06:39:41.330Z,47.67
2023-04-29T06:42:07.937Z,47.56
2023-04-29T06:44:34.475Z,48.00
2023-04-29T06:47:01.156Z,47.45
2023-04-29T06:49:27.707Z,48.08
2023-04-29T06:51:54.260Z,47.55
2023-04-29T06:54:21.427Z,47.96
2023-04-29T06:56:48.512Z,47.95
2023-04-29T06:59:15.330Z,47.79
2023-04-29T07:01:44.210Z,48.06
2023-04-29T07:04:12.110Z,48.31
2023-04-29T07:06:39.108Z,47.49
2023-04-29T07:09:05.709Z,48.18
2023-04-29T07:11:32.309Z,48.13
2023-04-29T07:13:58.867Z,47.42
2023-04-29T07:16:26.590Z,47.83
2023-04-29T07:18:53.302Z,47.82
2023-04-29T07:21:19.883Z,47.67
2023-04-29T07:23:46.465Z,48.00
2023-04-29T07:26:15.449Z,47.87
2023-04-29T07:28:42.636Z,47.76
2023-04-29T07:31:09.527Z,47.44
2023-04-29T07:33:36.313Z,48.36
2023-04-29T07:36:03.938Z,48.63
2023-04-29T07:38:30.799Z,48.07
2023-04-29T07:40:57.595Z,48.54
2023-04-29T07:43:24.224Z,48.31
2023-04-29T07:45:50.950Z,48.26
2023-04-29T07:48:17.509Z,48.27
2023-04-29T07:50:44.429Z,48.11
2023-04-29T07:53:11.100Z,48.12
2023-04-29T07:55:38.548Z,48.24
2023-04-29T07:58:05.131Z,47.81
2023-04-29T08:00:31.755Z,48.25
2023-04-29T08:02:58.626Z,47.76
2023-04-29T08:05:26.888Z,48.06
2023-04-29T08:07:53.792Z,48.18
2023-04-29T08:10:22.561Z,49.59
2023-04-29T08:12:49.910Z,50.96
2023-04-29T08:15:18.395Z,53.18
2023-04-29T08:17:44.979Z,53.90
2023-04-29T08:20:11.990Z,54.04
2023-04-29T08:22:38.580Z,54.54
2023-04-29T08:25:05.719Z,54.33
2023-04-29T08:27:32.295Z,54.50
2023-04-29T08:29:59.158Z,55.09
2023-04-29T08:32:25.801Z,54.57
2023-04-29T08:34:53.049Z,54.93
2023-04-29T08:37:20.745Z,54.34
2023-04-29T08:39:48.016Z,54.08
2023-04-29T08:42:14.626Z,54.79
2023-04-29T08:44:41.908Z,53.88
2023-04-29T08:47:09.110Z,54.47
2023-04-29T08:49:38.100Z,54.15
2023-04-29T08:52:05.001Z,54.25
2023-04-29T08:54:32.909Z,53.79
2023-04-29T08:57:00.630Z,53.69
2023-04-29T08:59:28.318Z,53.32
2023-04-29T09:01:56.394Z,52.98
2023-04-29T09:05:08.416Z,54.02
2023-04-29T09:07:36.184Z,53.24
2023-04-29T09:10:04.788Z,53.62
2023-04-29T09:12:31.496Z,52.95
2023-04-29T09:14:59.758Z,52.92
2023-04-29T09:17:44.391Z,53.62
2023-04-29T09:20:22.851Z,53.26
2023-04-29T09:22:53.479Z,53.56
2023-04-29T09:25:20.857Z,53.19
2023-04-29T09:27:47.616Z,53.24
2023-04-29T09:30:16.515Z,52.91
2023-04-29T09:32:45.139Z,52.93
2023-04-29T09:35:29.765Z,53.57
2023-04-29T09:38:13.870Z,53.16
2023-04-29T09:40:57.496Z,52.39
2023-04-29T09:43:25.330Z,52.05
2023-04-29T09:45:51.939Z,52.56
2023-04-29T09:48:18.871Z,52.64
2023-04-29T09:50:59.856Z,51.76
2023-04-29T09:53:31.409Z,51.34
2023-04-29T09:56:00.521Z,51.34
2023-04-29T09:58:36.891Z,51.98
2023-04-29T10:01:04.519Z,51.05
2023-04-29T10:03:37.924Z,51.63
2023-04-29T10:06:06.838Z,50.42
2023-04-29T10:08:34.652Z,50.75
2023-04-29T10:11:03.777Z,50.54
2023-04-29T10:13:31.419Z,50.46
2023-04-29T10:16:09.893Z,50.29
2023-04-29T10:18:37.904Z,49.64
2023-04-29T10:21:09.108Z,49.47
2023-04-29T10:23:37.551Z,49.41
2023-04-29T10:26:06.237Z,49.00
2023-04-29T10:28:33.268Z,49.44
2023-04-29T10:31:05.517Z,49.00
2023-04-29T10:33:35.374Z,48.99
2023-04-29T10:36:03.304Z,49.40
2023-04-29T10:38:37.007Z,48.30
2023-04-29T10:41:08.463Z,47.29
2023-04-29T10:43:35.271Z,48.16
2023-04-29T10:46:34.305Z,48.44
2023-04-29T10:49:05.021Z,48.23
2023-04-29T10:51:35.857Z,48.21
2023-04-29T10:54:08.294Z,48.16
2023-04-29T10:56:43.226Z,48.06
2023-04-29T10:59:14.547Z,48.23
2023-04-29T11:01:52.194Z,48.25
2023-04-29T11:04:22.859Z,48.49
2023-04-29T11:06:56.673Z,48.52
2023-04-29T11:09:27.232Z,48.89
2023-04-29T11:12:05.598Z,48.69
2023-04-29T11:14:38.768Z,48.95
2023-04-29T11:17:10.763Z,49.41
2023-04-29T11:19:42.239Z,50.13
2023-04-29T11:22:18.290Z,50.88
2023-04-29T11:24:58.695Z,51.22
2023-04-29T11:27:27.202Z,50.83
2023-04-29T11:29:59.011Z,51.19
2023-04-29T11:32:44.745Z,50.51
2023-04-29T11:35:19.703Z,50.81
2023-04-29T11:37:47.306Z,50.09
2023-04-29T11:40:15.254Z,49.64
2023-04-29T11:42:49.230Z,49.49
2023-04-29T11:45:18.270Z,49.26
2023-04-29T11:47:46.655Z,49.27
2023-04-29T11:50:17.098Z,49.31
2023-04-29T11:52:44.788Z,48.65
2023-04-29T11:55:12.180Z,48.81
2023-04-29T11:57:40.233Z,48.31
2023-04-29T12:00:12.900Z,48.08
2023-04-29T12:02:40.412Z,48.27
2023-04-29T12:05:13.086Z,48.35
2023-04-29T12:07:40.137Z,48.30
2023-04-29T12:10:11.736Z,47.55
2023-04-29T12:12:40.968Z,47.86
2023-04-29T12:15:09.883Z,47.77
2023-04-29T12:17:37.102Z,48.23
2023-04-29T12:20:04.221Z,47.92
2023-04-29T12:22:33.782Z,47.47
2023-04-29T12:25:02.855Z,47.63
2023-04-29T12:27:29.644Z,47.78
2023-04-29T12:29:57.260Z,47.54
2023-04-29T12:32:25.529Z,47.63
2023-04-29T12:34:55.529Z,47.81
2023-04-29T12:37:25.971Z,47.89
2023-04-29T12:39:55.082Z,47.54
2023-04-29T12:42:21.639Z,47.51
2023-04-29T12:44:48.939Z,47.15
2023-04-29T12:47:16.843Z,47.24
2023-04-29T12:49:47.975Z,47.12
2023-04-29T12:52:14.889Z,46.98
2023-04-29T12:54:50.813Z,47.17
2023-04-29T12:57:17.479Z,47.29
2023-04-29T12:59:44.014Z,47.56
2023-04-29T13:02:10.627Z,47.37
2023-04-29T13:04:38.145Z,47.40
2023-04-29T13:07:06.017Z,47.44
2023-04-29T13:09:34.037Z,47.53
2023-04-29T13:12:02.567Z,47.53
2023-04-29T13:14:29.218Z,47.45
2023-04-29T13:16:55.925Z,47.77
2023-04-29T13:21:52.263Z,47.62
2023-04-29T13:24:20.200Z,47.59
2023-04-29T13:26:49.584Z,47.26
2023-04-29T13:29:17.478Z,47.78
2023-04-29T13:31:44.190Z,47.44
2023-04-29T13:34:10.890Z,47.43
2023-04-29T13:36:37.497Z,47.28
2023-04-29T13:39:04.017Z,47.36
2023-04-29T13:41:34.437Z,47.02
2023-04-29T13:44:02.263Z,46.82
2023-04-29T13:46:31.475Z,46.55
2023-04-29T13:49:22.781Z,46.94
2023-04-29T13:57:36.856Z,46.38
2023-04-29T14:02:25.162Z,46.42
2023-04-29T14:04:53.400Z,46.14
2023-04-29T14:07:20.892Z,45.93
2023-04-29T14:09:47.529Z,45.83
2023-04-29T14:12:14.074Z,46.26
2023-04-29T14:14:40.678Z,46.12
2023-04-29T14:17:07.325Z,45.86
2023-04-29T14:19:33.834Z,46.28
2023-04-29T14:22:00.375Z,45.72
2023-04-29T14:24:26.864Z,45.96
2023-04-29T14:26:53.504Z,45.78
2023-04-29T14:29:20.883Z,45.80
2023-04-29T14:31:47.593Z,45.67
2023-04-29T14:34:14.246Z,45.84
2023-04-29T14:36:41.103Z,45.85
2023-04-29T14:39:08.399Z,45.42
2023-04-29T14:41:34.971Z,45.33
2023-04-29T14:44:01.650Z,45.43
2023-04-29T14:46:29.210Z,45.75
2023-04-29T14:48:56.159Z,45.56
2023-04-29T14:51:22.793Z,45.75
2023-04-29T14:53:49.335Z,45.26
2023-04-29T14:56:19.053Z,45.24
2023-04-29T14:58:45.685Z,45.45
2023-04-29T15:01:12.261Z,45.44
2023-04-29T15:06:08.296Z,45.14
2023-04-29T15:08:34.954Z,44.93
2023-04-29T15:11:01.493Z,45.05
2023-04-29T15:13:30.039Z,44.80
2023-04-29T15:15:56.948Z,44.87
2023-04-29T15:18:24.062Z,45.00
2023-04-29T15:20:50.628Z,45.09
2023-04-29T15:23:17.146Z,45.07
2023-04-29T15:25:43.740Z,44.79
2023-04-29T15:28:10.413Z,44.91
2023-04-29T15:30:37.020Z,45.16
2023-04-29T15:33:04.644Z,44.94
2023-04-29T15:35:31.676Z,44.75
2023-04-29T15:37:59.289Z,45.13
2023-04-29T15:40:26.217Z,44.65
2023-04-29T15:42:52.702Z,44.76
2023-04-29T15:45:19.325Z,44.67
2023-04-29T15:47:46.495Z,44.57
2023-04-29T15:50:13.243Z,44.55
2023-04-29T15:52:39.772Z,44.31
2023-04-29T15:55:07.314Z,44.36
2023-04-29T15:57:34.749Z,44.31
2023-04-29T16:00:01.627Z,44.41
2023-04-29T16:02:28.286Z,44.24
2023-04-29T16:04:55.231Z,44.55
2023-04-29T16:07:21.827Z,44.56
2023-04-29T16:09:48.393Z,44.59
2023-04-29T16:12:15.036Z,44.60
2023-04-29T16:14:41.860Z,44.55
2023-04-29T16:17:08.489Z,43.94
2023-04-29T16:19:36.599Z,43.88
2023-04-29T16:22:03.893Z,44.14
2023-04-29T16:24:30.475Z,43.80
2023-04-29T16:26:57.230Z,43.65
2023-04-29T16:29:23.815Z,43.93
2023-04-29T16:31:50.501Z,43.75
2023-04-29T16:34:17.363Z,43.77
2023-04-29T16:36:43.882Z,43.77
2023-04-29T16:39:10.398Z,43.84
2023-04-29T16:41:37.477Z,44.09
2023-04-29T16:44:04.117Z,44.17
2023-04-29T16:46:32.428Z,43.86
2023-04-29T16:48:59.115Z,43.92
2023-04-29T16:51:26.068Z,44.32
2023-04-29T16:53:53.515Z,44.22
2023-04-29T16:56:21.518Z,43.87
2023-04-29T16:58:48.633Z,43.82
2023-04-29T17:01:15.877Z,43.80
2023-04-29T17:03:42.601Z,43.77
2023-04-29T17:06:09.212Z,43.76
2023-04-29T17:08:35.841Z,44.19
2023-04-29T17:11:04.944Z,43.77
2023-04-29T17:13:31.628Z,43.55
2023-04-29T17:15:58.411Z,43.74
2023-04-29T17:18:25.076Z,43.87
2023-04-29T17:20:51.727Z,43.87
2023-04-29T17:23:18.361Z,43.88
2023-04-29T17:25:45.091Z,44.11
2023-04-29T17:28:11.738Z,43.67
2023-04-29T17:30:38.410Z,43.88
2023-04-29T17:33:08.786Z,43.92
2023-04-29T17:35:35.333Z,43.99
2023-04-29T17:38:01.871Z,43.99
2023-04-29T17:40:28.561Z,43.42
2023-04-29T17:42:55.090Z,43.65
2023-04-29T17:45:21.736Z,43.87
2023-04-29T17:47:48.488Z,43.58
2023-04-29T17:50:15.210Z,43.50
2023-04-29T17:52:42.386Z,43.70
2023-04-29T17:55:09.617Z,43.59
2023-04-29T17:57:37.981Z,43.76
2023-04-29T18:00:07.390Z,43.79
2023-04-29T18:02:34.813Z,43.91
2023-04-29T18:05:03.405Z,43.60
2023-04-29T18:07:30.066Z,44.00
2023-04-29T18:09:57.108Z,43.80
2023-04-29T18:12:24.777Z,43.53
2023-04-29T18:14:52.023Z,43.84
2023-04-29T18:17:19.107Z,43.71
2023-04-29T18:19:51.858Z,43.81
2023-04-29T18:22:18.635Z,43.93
2023-04-29T18:24:46.187Z,43.76
2023-04-29T18:27:12.779Z,43.77
2023-04-29T18:29:39.470Z,44.14
2023-04-29T18:32:07.955Z,44.06
2023-04-29T18:34:35.064Z,43.99
2023-04-29T18:37:01.899Z,43.75
2023-04-29T18:39:28.628Z,43.99
2023-04-29T18:41:55.973Z,44.01
2023-04-29T18:44:22.516Z,44.24
2023-04-29T18:46:49.261Z,44.25
2023-04-29T18:49:17.688Z,44.15
2023-04-29T18:51:47.600Z,43.82
2023-04-29T18:54:16.553Z,44.15
2023-04-29T18:56:46.479Z,44.42
2023-04-29T18:59:18.845Z,44.44
2023-04-29T19:01:49.035Z,44.68
2023-04-29T19:04:16.672Z,44.69
2023-04-29T19:06:43.540Z,44.74
2023-04-29T19:09:11.347Z,44.34
2023-04-29T19:11:38.044Z,44.76
2023-04-29T19:14:04.896Z,44.27
2023-04-29T19:16:31.547Z,44.34
2023-04-29T19:18:58.105Z,44.76
2023-04-29T19:21:24.681Z,44.41
2023-04-29T19:23:51.236Z,44.86
2023-04-29T19:26:17.961Z,44.53
2023-04-29T19:28:44.468Z,44.91
2023-04-29T19:31:11.823Z,45.25
2023-04-29T19:33:38.638Z,45.31
2023-04-29T19:36:05.201Z,44.92
2023-04-29T19:38:31.773Z,44.75
2023-04-29T19:40:58.332Z,44.70
2023-04-29T19:43:24.967Z,44.67
2023-04-29T19:45:51.533Z,45.42
2023-04-29T19:48:18.038Z,45.31
2023-04-29T19:50:44.653Z,45.18
2023-04-29T19:53:11.546Z,45.17
2023-04-29T19:55:39.901Z,45.47
2023-04-29T19:58:07.038Z,45.13
2023-04-29T20:00:34.524Z,45.29
2023-04-29T20:03:01.247Z,44.99
2023-04-29T20:05:28.814Z,44.92
2023-04-29T20:07:56.089Z,45.69
2023-04-29T20:10:22.774Z,45.66
2023-04-29T20:12:49.459Z,45.46
2023-04-29T20:15:16.447Z,45.31
2023-04-29T20:17:43.107Z,45.81
2023-04-29T20:20:10.556Z,46.06
2023-04-29T20:22:37.269Z,45.85
2023-04-29T20:25:04.110Z,45.39
2023-04-29T20:27:30.753Z,45.56
2023-04-29T20:29:57.473Z,45.93
2023-04-29T20:32:24.205Z,45.90
2023-04-29T20:34:50.973Z,45.48
2023-04-29T20:37:17.646Z,45.46
2023-04-29T20:39:44.517Z,45.63
2023-04-29T20:42:11.252Z,45.88
2023-04-29T20:44:38.456Z,45.67
2023-04-29T20:47:05.851Z,46.30
2023-04-29T20:49:32.827Z,45.56
2023-04-29T20:51:59.927Z,45.50
2023-04-29T20:54:26.487Z,45.85
2023-04-29T20:56:53.036Z,45.62
2023-04-29T20:59:19.562Z,45.51
2023-04-29T21:01:46.409Z,45.58
2023-04-29T21:04:13.029Z,45.82
2023-04-29T21:06:39.601Z,46.20
2023-04-29T21:09:06.160Z,46.02
2023-04-29T21:11:32.716Z,46.09
2023-04-29T21:13:59.288Z,46.34
2023-04-29T21:16:26.313Z,46.22
2023-04-29T21:18:52.963Z,46.00
2023-04-29T21:21:19.538Z,46.32
2023-04-29T21:23:46.177Z,46.17
2023-04-29T21:26:14.976Z,45.79
2023-04-29T21:28:41.768Z,46.27
2023-04-29T21:31:15.090Z,45.86
2023-04-29T21:33:45.086Z,46.43
2023-04-29T21:36:12.207Z,46.32
2023-04-29T21:38:38.734Z,46.10
2023-04-29T21:41:06.192Z,45.97
2023-04-29T21:43:33.349Z,46.54
2023-04-29T21:46:00.479Z,46.17
2023-04-29T21:48:27.522Z,46.05
2023-04-29T21:50:54.076Z,46.38
2023-04-29T21:53:20.812Z,46.66
2023-04-29T21:55:47.892Z,46.29
2023-04-29T21:58:16.007Z,46.63
2023-04-29T22:00:51.185Z,46.11
2023-04-29T22:03:18.020Z,46.33
2023-04-29T22:05:44.595Z,46.33
2023-04-29T22:08:11.409Z,46.09
2023-04-29T22:10:40.152Z,46.43
2023-04-29T22:13:07.530Z,45.89
2023-04-29T22:15:34.128Z,46.41
2023-04-29T22:18:00.909Z,46.60
2023-04-29T22:20:30.366Z,46.64
2023-04-29T22:22:57.092Z,46.53
2023-04-29T22:25:23.763Z,46.35
2023-04-29T22:27:50.395Z,46.31
2023-04-29T22:30:17.785Z,46.56
2023-04-29T22:32:44.567Z,46.50
2023-04-29T22:35:11.282Z,46.67
2023-04-29T22:37:37.914Z,46.71
2023-04-29T22:40:04.899Z,46.42
2023-04-29T22:42:31.420Z,46.60
2023-04-29T22:44:57.907Z,46.23
2023-04-29T22:47:24.434Z,46.15
2023-04-29T22:49:50.942Z,46.46
2023-04-29T22:52:17.452Z,46.48
2023-04-29T22:54:44.063Z,46.34
2023-04-29T22:57:10.737Z,46.22
2023-04-29T22:59:37.237Z,46.92
2023-04-29T23:02:03.812Z,46.69
2023-04-29T23:04:32.348Z,46.81
2023-04-29T23:06:58.942Z,46.58
2023-04-29T23:09:26.108Z,46.86
2023-04-29T23:11:52.648Z,46.42
2023-04-29T23:14:21.670Z,47.28
2023-04-29T23:16:48.226Z,46.76
2023-04-29T23:19:14.767Z,46.71
2023-04-29T23:21:41.468Z,46.73
2023-04-29T23:24:07.953Z,46.88
2023-04-29T23:26:34.449Z,46.67
2023-04-29T23:29:01.016Z,46.45
2023-04-29T23:31:27.600Z,46.49
2023-04-29T23:33:54.174Z,46.57
2023-04-29T23:36:20.698Z,46.84
2023-04-29T23:38:47.264Z,47.30
2023-04-29T23:41:13.780Z,46.54
2023-04-29T23:43:40.290Z,46.54
2023-04-29T23:46:06.884Z,46.94
2023-04-29T23:48:33.401Z,46.52
2023-04-29T23:50:59.948Z,46.52
2023-04-29T23:53:26.562Z,46.55
2023-04-29T23:55:53.134Z,46.68
2023-04-29T23:58:19.635Z,47.09
